AVA8587 SKBO-SKPS
Flight info
| Callsign | AVA8587 |
|---|---|
| Flight time | 0h 47m |
| Altitude | 23000 |
| Route | VAPOM4R OREGA Z009 PPN/N0408F220 W48 MER |
| Aircraft | A320/M-SDE3FGHIRWY/LB1 |
Departure
| Time | 2026-04-21 02:57 |
|---|---|
| Airport | El Dorado International Airport (SKBO) |
Arrival
| Time | 2026-04-21 03:44 |
|---|---|
| Airport | Antonio Nariño Airport (SKPS) |
| Time | Latitude | Longitude | Altitude | Speed | Heading |
|---|---|---|---|---|---|
| 2026-04-21 02:25 | 4.70107 | -74.14442 | 8371 ft | 0 kts | 127° |
| 2026-04-21 02:44 | 4.70109 | -74.14445 | 8371 ft | 2 kts | 127° |
| 2026-04-21 02:44 | 4.70118 | -74.14457 | 8371 ft | 2 kts | 127° |
| 2026-04-21 02:44 | 4.70127 | -74.14469 | 8371 ft | 2 kts | 127° |
| 2026-04-21 02:45 | 4.70136 | -74.14481 | 8371 ft | 2 kts | 127° |
| 2026-04-21 02:45 | 4.70145 | -74.14494 | 8371 ft | 1 kts | 137° |
| 2026-04-21 02:45 | 4.70159 | -74.14498 | 8371 ft | 2 kts | 184° |
| 2026-04-21 02:45 | 4.70170 | -74.14496 | 8371 ft | 0 kts | 213° |
| 2026-04-21 02:46 | 4.70176 | -74.14491 | 8371 ft | 1 kts | 218° |
| 2026-04-21 02:46 | 4.70177 | -74.14490 | 8371 ft | 0 kts | 218° |
| 2026-04-21 02:50 | 4.70176 | -74.14490 | 8371 ft | 0 kts | 218° |
| 2026-04-21 02:50 | 4.70172 | -74.14494 | 8371 ft | 1 kts | 217° |
| 2026-04-21 02:50 | 4.70151 | -74.14510 | 8371 ft | 5 kts | 215° |
| 2026-04-21 02:51 | 4.70127 | -74.14534 | 8371 ft | 5 kts | 271° |
| 2026-04-21 02:51 | 4.70137 | -74.14572 | 8371 ft | 6 kts | 300° |
| 2026-04-21 02:51 | 4.70176 | -74.14591 | 8371 ft | 7 kts | 14° |
| 2026-04-21 02:51 | 4.70221 | -74.14558 | 8371 ft | 8 kts | 39° |
| 2026-04-21 02:52 | 4.70275 | -74.14518 | 8371 ft | 10 kts | 36° |
| 2026-04-21 02:52 | 4.70336 | -74.14473 | 8371 ft | 12 kts | 36° |
| 2026-04-21 02:52 | 4.70418 | -74.14410 | 8370 ft | 16 kts | 36° |
| 2026-04-21 02:52 | 4.70509 | -74.14441 | 8370 ft | 16 kts | 307° |
| 2026-04-21 02:53 | 4.70580 | -74.14535 | 8370 ft | 17 kts | 307° |
| 2026-04-21 02:53 | 4.70651 | -74.14629 | 8369 ft | 16 kts | 307° |
| 2026-04-21 02:53 | 4.70720 | -74.14721 | 8369 ft | 16 kts | 307° |
| 2026-04-21 02:53 | 4.70787 | -74.14810 | 8369 ft | 16 kts | 307° |
| 2026-04-21 02:54 | 4.70856 | -74.14900 | 8368 ft | 15 kts | 307° |
| 2026-04-21 02:54 | 4.70922 | -74.14988 | 8368 ft | 15 kts | 307° |
| 2026-04-21 02:54 | 4.70991 | -74.15079 | 8366 ft | 16 kts | 307° |
| 2026-04-21 02:54 | 4.71060 | -74.15170 | 8365 ft | 16 kts | 307° |
| 2026-04-21 02:55 | 4.71134 | -74.15266 | 8363 ft | 17 kts | 308° |
| 2026-04-21 02:55 | 4.71230 | -74.15285 | 8362 ft | 14 kts | 33° |
| 2026-04-21 02:55 | 4.71306 | -74.15223 | 8362 ft | 9 kts | 49° |
| 2026-04-21 02:55 | 4.71323 | -74.15192 | 8362 ft | 0 kts | 138° |
| 2026-04-21 02:56 | 4.71322 | -74.15190 | 8362 ft | 0 kts | 113° |
| 2026-04-21 02:56 | 4.71029 | -74.14794 | 8368 ft | 95 kts | 127° |
| 2026-04-21 02:56 | 4.70501 | -74.14098 | 8370 ft | 153 kts | 127° |
| 2026-04-21 02:57 | 4.69753 | -74.13110 | 8472 ft | 192 kts | 127° |
| 2026-04-21 02:57 | 4.68889 | -74.12083 | 9060 ft | 195 kts | 139° |
| 2026-04-21 02:57 | 4.67717 | -74.11437 | 9744 ft | 196 kts | 167° |
| 2026-04-21 02:57 | 4.66369 | -74.11494 | 10399 ft | 194 kts | 199° |
| 2026-04-21 02:58 | 4.65195 | -74.12212 | 10743 ft | 202 kts | 228° |
| 2026-04-21 02:58 | 4.64508 | -74.13445 | 11098 ft | 209 kts | 252° |
| 2026-04-21 02:58 | 4.64125 | -74.14874 | 11434 ft | 219 kts | 256° |
| 2026-04-21 02:58 | 4.63651 | -74.16381 | 11696 ft | 235 kts | 250° |
| 2026-04-21 02:59 | 4.62990 | -74.17953 | 11893 ft | 255 kts | 246° |
| 2026-04-21 02:59 | 4.62205 | -74.19604 | 12320 ft | 266 kts | 246° |
| 2026-04-21 02:59 | 4.61526 | -74.21335 | 12931 ft | 269 kts | 255° |
| 2026-04-21 02:59 | 4.61072 | -74.23183 | 13347 ft | 281 kts | 259° |
| 2026-04-21 03:00 | 4.60679 | -74.25153 | 13645 ft | 298 kts | 259° |
| 2026-04-21 03:00 | 4.60132 | -74.27230 | 13911 ft | 316 kts | 252° |
| 2026-04-21 03:00 | 4.59258 | -74.29328 | 14161 ft | 333 kts | 245° |
| 2026-04-21 03:00 | 4.58198 | -74.31436 | 14407 ft | 350 kts | 243° |
| 2026-04-21 03:01 | 4.57045 | -74.33664 | 14642 ft | 365 kts | 243° |
| 2026-04-21 03:01 | 4.55869 | -74.35934 | 15066 ft | 373 kts | 243° |
| 2026-04-21 03:01 | 4.54676 | -74.38246 | 15636 ft | 376 kts | 243° |
| 2026-04-21 03:01 | 4.53477 | -74.40579 | 16198 ft | 379 kts | 243° |
| 2026-04-21 03:02 | 4.52256 | -74.42958 | 16758 ft | 381 kts | 243° |
| 2026-04-21 03:02 | 4.51051 | -74.45310 | 17259 ft | 384 kts | 243° |
| 2026-04-21 03:02 | 4.49837 | -74.47683 | 17804 ft | 386 kts | 243° |
| 2026-04-21 03:02 | 4.48605 | -74.50091 | 18319 ft | 389 kts | 243° |
| 2026-04-21 03:03 | 4.47361 | -74.52521 | 18850 ft | 392 kts | 243° |
| 2026-04-21 03:03 | 4.46109 | -74.54966 | 19325 ft | 396 kts | 243° |
| 2026-04-21 03:03 | 4.44844 | -74.57439 | 19803 ft | 400 kts | 243° |
| 2026-04-21 03:03 | 4.43588 | -74.59897 | 20084 ft | 402 kts | 243° |
| 2026-04-21 03:04 | 4.42305 | -74.62404 | 20137 ft | 402 kts | 242° |
| 2026-04-21 03:04 | 4.41035 | -74.64885 | 20123 ft | 402 kts | 243° |
| 2026-04-21 03:04 | 4.39758 | -74.67386 | 20140 ft | 402 kts | 242° |
| 2026-04-21 03:04 | 4.38480 | -74.69885 | 20123 ft | 402 kts | 242° |
| 2026-04-21 03:05 | 4.37197 | -74.72382 | 20108 ft | 402 kts | 242° |
| 2026-04-21 03:05 | 4.35913 | -74.74873 | 20106 ft | 402 kts | 242° |
| 2026-04-21 03:05 | 4.34625 | -74.77374 | 20109 ft | 402 kts | 242° |
| 2026-04-21 03:05 | 4.33355 | -74.79839 | 20090 ft | 402 kts | 242° |
| 2026-04-21 03:06 | 4.32066 | -74.82340 | 20062 ft | 402 kts | 242° |
| 2026-04-21 03:06 | 4.30776 | -74.84843 | 20044 ft | 403 kts | 242° |
| 2026-04-21 03:06 | 4.29487 | -74.87345 | 20068 ft | 404 kts | 242° |
| 2026-04-21 03:06 | 4.28209 | -74.89824 | 20048 ft | 404 kts | 242° |
| 2026-04-21 03:07 | 4.26914 | -74.92336 | 20022 ft | 405 kts | 242° |
| 2026-04-21 03:07 | 4.25618 | -74.94855 | 20031 ft | 405 kts | 242° |
| 2026-04-21 03:07 | 4.24336 | -74.97342 | 20027 ft | 405 kts | 242° |
| 2026-04-21 03:07 | 4.23043 | -74.99853 | 20014 ft | 405 kts | 242° |
| 2026-04-21 03:08 | 4.21726 | -75.02356 | 20071 ft | 407 kts | 240° |
| 2026-04-21 03:08 | 4.20258 | -75.04813 | 20419 ft | 411 kts | 237° |
| 2026-04-21 03:08 | 4.18648 | -75.07172 | 20969 ft | 411 kts | 233° |
| 2026-04-21 03:08 | 4.16943 | -75.09472 | 21459 ft | 412 kts | 233° |
| 2026-04-21 03:09 | 4.15212 | -75.11781 | 21894 ft | 415 kts | 232° |
| 2026-04-21 03:09 | 4.13490 | -75.14075 | 22293 ft | 418 kts | 232° |
| 2026-04-21 03:09 | 4.11742 | -75.16409 | 22726 ft | 420 kts | 232° |
| 2026-04-21 03:09 | 4.09964 | -75.18780 | 23020 ft | 423 kts | 232° |
| 2026-04-21 03:10 | 4.08191 | -75.21148 | 23079 ft | 423 kts | 232° |
| 2026-04-21 03:10 | 4.06437 | -75.23490 | 23092 ft | 423 kts | 232° |
| 2026-04-21 03:10 | 4.04664 | -75.25858 | 23104 ft | 424 kts | 232° |
| 2026-04-21 03:10 | 4.02895 | -75.28220 | 23112 ft | 424 kts | 232° |
| 2026-04-21 03:11 | 4.01119 | -75.30592 | 23135 ft | 424 kts | 232° |
| 2026-04-21 03:11 | 3.99344 | -75.32964 | 23166 ft | 424 kts | 232° |
| 2026-04-21 03:11 | 3.97592 | -75.35306 | 23174 ft | 424 kts | 232° |
| 2026-04-21 03:11 | 3.95828 | -75.37665 | 23188 ft | 423 kts | 232° |
| 2026-04-21 03:12 | 3.94059 | -75.40029 | 23205 ft | 422 kts | 232° |
| 2026-04-21 03:12 | 3.92287 | -75.42396 | 23241 ft | 421 kts | 232° |
| 2026-04-21 03:12 | 3.90543 | -75.44724 | 23266 ft | 421 kts | 232° |
| 2026-04-21 03:12 | 3.88732 | -75.47091 | 23280 ft | 421 kts | 230° |
| 2026-04-21 03:13 | 3.86786 | -75.49277 | 23284 ft | 420 kts | 225° |
| 2026-04-21 03:13 | 3.84665 | -75.51289 | 23427 ft | 425 kts | 220° |
| 2026-04-21 03:13 | 3.82338 | -75.53186 | 23899 ft | 426 kts | 218° |
| 2026-04-21 03:13 | 3.80011 | -75.55018 | 24386 ft | 426 kts | 217° |
| 2026-04-21 03:14 | 3.77695 | -75.56834 | 24811 ft | 428 kts | 216° |
| 2026-04-21 03:14 | 3.75328 | -75.58691 | 25183 ft | 432 kts | 217° |
| 2026-04-21 03:14 | 3.72937 | -75.60568 | 25327 ft | 434 kts | 217° |
| 2026-04-21 03:14 | 3.70545 | -75.62447 | 25341 ft | 434 kts | 217° |
| 2026-04-21 03:15 | 3.68191 | -75.64298 | 25373 ft | 433 kts | 217° |
| 2026-04-21 03:15 | 3.65795 | -75.66189 | 25406 ft | 433 kts | 217° |
| 2026-04-21 03:15 | 3.63419 | -75.68076 | 25417 ft | 433 kts | 217° |
| 2026-04-21 03:15 | 3.61051 | -75.69953 | 25415 ft | 433 kts | 217° |
| 2026-04-21 03:16 | 3.58681 | -75.71830 | 25427 ft | 432 kts | 217° |
| 2026-04-21 03:16 | 3.56335 | -75.73684 | 25452 ft | 432 kts | 217° |
| 2026-04-21 03:16 | 3.53967 | -75.75552 | 25463 ft | 432 kts | 217° |
| 2026-04-21 03:16 | 3.51595 | -75.77423 | 25497 ft | 432 kts | 217° |
| 2026-04-21 03:17 | 3.49215 | -75.79300 | 25520 ft | 432 kts | 217° |
| 2026-04-21 03:17 | 3.46867 | -75.81151 | 25528 ft | 432 kts | 217° |
| 2026-04-21 03:17 | 3.44479 | -75.83032 | 25547 ft | 432 kts | 217° |
| 2026-04-21 03:17 | 3.42109 | -75.84900 | 25580 ft | 432 kts | 217° |
| 2026-04-21 03:18 | 3.39744 | -75.86762 | 25591 ft | 433 kts | 217° |
| 2026-04-21 03:18 | 3.37402 | -75.88606 | 25597 ft | 433 kts | 217° |
| 2026-04-21 03:18 | 3.35005 | -75.90493 | 25628 ft | 433 kts | 217° |
| 2026-04-21 03:18 | 3.32634 | -75.92360 | 25656 ft | 433 kts | 217° |
| 2026-04-21 03:19 | 3.30265 | -75.94227 | 25683 ft | 433 kts | 217° |
| 2026-04-21 03:19 | 3.27904 | -75.96085 | 25712 ft | 433 kts | 217° |
| 2026-04-21 03:19 | 3.25549 | -75.97941 | 25737 ft | 433 kts | 217° |
| 2026-04-21 03:19 | 3.23168 | -75.99815 | 25770 ft | 433 kts | 217° |
| 2026-04-21 03:20 | 3.20800 | -76.01681 | 25785 ft | 433 kts | 217° |
| 2026-04-21 03:20 | 3.18427 | -76.03549 | 25781 ft | 433 kts | 217° |
| 2026-04-21 03:20 | 3.16066 | -76.05408 | 25764 ft | 433 kts | 217° |
| 2026-04-21 03:20 | 3.13690 | -76.07280 | 25749 ft | 433 kts | 217° |
| 2026-04-21 03:21 | 3.11303 | -76.09158 | 25730 ft | 433 kts | 217° |
| 2026-04-21 03:21 | 3.08918 | -76.11037 | 25703 ft | 433 kts | 217° |
| 2026-04-21 03:21 | 3.06576 | -76.12882 | 25679 ft | 433 kts | 217° |
| 2026-04-21 03:21 | 3.04195 | -76.14759 | 25666 ft | 434 kts | 217° |
| 2026-04-21 03:22 | 3.01810 | -76.16637 | 25667 ft | 434 kts | 217° |
| 2026-04-21 03:22 | 2.99413 | -76.18524 | 25656 ft | 434 kts | 217° |
| 2026-04-21 03:22 | 2.97026 | -76.20389 | 25649 ft | 435 kts | 217° |
| 2026-04-21 03:22 | 2.94643 | -76.22228 | 25630 ft | 435 kts | 217° |
| 2026-04-21 03:23 | 2.92245 | -76.24076 | 25633 ft | 435 kts | 217° |
| 2026-04-21 03:23 | 2.89819 | -76.25948 | 25620 ft | 435 kts | 217° |
| 2026-04-21 03:23 | 2.87462 | -76.27760 | 25603 ft | 435 kts | 217° |
| 2026-04-21 03:23 | 2.85018 | -76.29640 | 25592 ft | 435 kts | 217° |
| 2026-04-21 03:24 | 2.82606 | -76.31499 | 25588 ft | 435 kts | 217° |
| 2026-04-21 03:24 | 2.80208 | -76.33349 | 25579 ft | 435 kts | 217° |
| 2026-04-21 03:24 | 2.77813 | -76.35202 | 25580 ft | 435 kts | 217° |
| 2026-04-21 03:24 | 2.75389 | -76.37079 | 25565 ft | 435 kts | 217° |
| 2026-04-21 03:25 | 2.72984 | -76.38943 | 25542 ft | 435 kts | 217° |
| 2026-04-21 03:25 | 2.70606 | -76.40789 | 25529 ft | 435 kts | 217° |
| 2026-04-21 03:25 | 2.68201 | -76.42652 | 25508 ft | 435 kts | 217° |
| 2026-04-21 03:25 | 2.65806 | -76.44504 | 25497 ft | 436 kts | 217° |
| 2026-04-21 03:26 | 2.63401 | -76.46381 | 25479 ft | 436 kts | 218° |
| 2026-04-21 03:26 | 2.61033 | -76.48283 | 25452 ft | 436 kts | 218° |
| 2026-04-21 03:26 | 2.58678 | -76.50193 | 25426 ft | 436 kts | 218° |
| 2026-04-21 03:26 | 2.56318 | -76.52110 | 25394 ft | 436 kts | 219° |
| 2026-04-21 03:27 | 2.53954 | -76.54028 | 25366 ft | 436 kts | 218° |
| 2026-04-21 03:27 | 2.51587 | -76.55948 | 25349 ft | 436 kts | 219° |
| 2026-04-21 03:27 | 2.49220 | -76.57866 | 25323 ft | 435 kts | 219° |
| 2026-04-21 03:27 | 2.46882 | -76.59758 | 25299 ft | 435 kts | 219° |
| 2026-04-21 03:28 | 2.44506 | -76.61678 | 25285 ft | 435 kts | 219° |
| 2026-04-21 03:28 | 2.42138 | -76.63594 | 25278 ft | 434 kts | 219° |
| 2026-04-21 03:28 | 2.39804 | -76.65486 | 25276 ft | 434 kts | 219° |
| 2026-04-21 03:28 | 2.37461 | -76.67403 | 25286 ft | 434 kts | 219° |
| 2026-04-21 03:29 | 2.35113 | -76.69327 | 25303 ft | 434 kts | 219° |
| 2026-04-21 03:29 | 2.32756 | -76.71255 | 25308 ft | 434 kts | 219° |
| 2026-04-21 03:29 | 2.30399 | -76.73180 | 25116 ft | 436 kts | 219° |
| 2026-04-21 03:29 | 2.28086 | -76.75065 | 24608 ft | 432 kts | 219° |
| 2026-04-21 03:30 | 2.25758 | -76.76961 | 24132 ft | 428 kts | 219° |
| 2026-04-21 03:30 | 2.23446 | -76.78844 | 23666 ft | 423 kts | 219° |
| 2026-04-21 03:30 | 2.21175 | -76.80695 | 23221 ft | 419 kts | 219° |
| 2026-04-21 03:30 | 2.18942 | -76.82513 | 22759 ft | 415 kts | 219° |
| 2026-04-21 03:31 | 2.16704 | -76.84335 | 22300 ft | 411 kts | 219° |
| 2026-04-21 03:31 | 2.14487 | -76.86141 | 21856 ft | 407 kts | 219° |
| 2026-04-21 03:31 | 2.12287 | -76.87933 | 21377 ft | 404 kts | 219° |
| 2026-04-21 03:31 | 2.10135 | -76.89684 | 20899 ft | 401 kts | 219° |
| 2026-04-21 03:32 | 2.07963 | -76.91454 | 20397 ft | 399 kts | 219° |
| 2026-04-21 03:32 | 2.05826 | -76.93194 | 19886 ft | 397 kts | 219° |
| 2026-04-21 03:32 | 2.03681 | -76.94939 | 19368 ft | 395 kts | 219° |
| 2026-04-21 03:32 | 2.01545 | -76.96678 | 18856 ft | 393 kts | 219° |
| 2026-04-21 03:33 | 1.99413 | -76.98415 | 18338 ft | 391 kts | 219° |
| 2026-04-21 03:33 | 1.97301 | -77.00135 | 17830 ft | 389 kts | 219° |
| 2026-04-21 03:33 | 1.95230 | -77.01822 | 17348 ft | 387 kts | 219° |
| 2026-04-21 03:33 | 1.93145 | -77.03519 | 16873 ft | 384 kts | 219° |
| 2026-04-21 03:34 | 1.91075 | -77.05204 | 16392 ft | 381 kts | 219° |
| 2026-04-21 03:34 | 1.89012 | -77.06882 | 15917 ft | 378 kts | 219° |
| 2026-04-21 03:34 | 1.86965 | -77.08537 | 15439 ft | 376 kts | 219° |
| 2026-04-21 03:34 | 1.84922 | -77.10192 | 14946 ft | 374 kts | 220° |
| 2026-04-21 03:35 | 1.82902 | -77.11831 | 14470 ft | 372 kts | 220° |
| 2026-04-21 03:35 | 1.80920 | -77.13432 | 14001 ft | 369 kts | 219° |
| 2026-04-21 03:35 | 1.78839 | -77.14937 | 13517 ft | 368 kts | 214° |
| 2026-04-21 03:35 | 1.76662 | -77.16281 | 13044 ft | 365 kts | 210° |
| 2026-04-21 03:36 | 1.74431 | -77.17497 | 12582 ft | 363 kts | 209° |
| 2026-04-21 03:36 | 1.72198 | -77.18693 | 12108 ft | 361 kts | 209° |
| 2026-04-21 03:36 | 1.69974 | -77.19881 | 11659 ft | 358 kts | 208° |
| 2026-04-21 03:36 | 1.67768 | -77.21060 | 11225 ft | 355 kts | 208° |
| 2026-04-21 03:37 | 1.65611 | -77.22214 | 10794 ft | 352 kts | 208° |
| 2026-04-21 03:37 | 1.63459 | -77.23367 | 10517 ft | 343 kts | 208° |
| 2026-04-21 03:37 | 1.61378 | -77.24481 | 10373 ft | 330 kts | 208° |
| 2026-04-21 03:37 | 1.59410 | -77.25536 | 10273 ft | 316 kts | 208° |
| 2026-04-21 03:38 | 1.57494 | -77.26563 | 10195 ft | 303 kts | 208° |
| 2026-04-21 03:38 | 1.55679 | -77.27535 | 10131 ft | 290 kts | 208° |
| 2026-04-21 03:38 | 1.53922 | -77.28477 | 10075 ft | 276 kts | 208° |
| 2026-04-21 03:38 | 1.52256 | -77.29363 | 9999 ft | 265 kts | 207° |
| 2026-04-21 03:39 | 1.50613 | -77.30193 | 9750 ft | 262 kts | 207° |
| 2026-04-21 03:39 | 1.49009 | -77.30991 | 9526 ft | 257 kts | 207° |
| 2026-04-21 03:39 | 1.47414 | -77.31782 | 9309 ft | 251 kts | 207° |
| 2026-04-21 03:39 | 1.45857 | -77.32560 | 9092 ft | 246 kts | 207° |
| 2026-04-21 03:40 | 1.44339 | -77.33320 | 8923 ft | 237 kts | 207° |
| 2026-04-21 03:40 | 1.42947 | -77.34017 | 8939 ft | 216 kts | 207° |
| 2026-04-21 03:40 | 1.41668 | -77.34659 | 8865 ft | 192 kts | 207° |
| 2026-04-21 03:40 | 1.40518 | -77.35236 | 8816 ft | 178 kts | 207° |
| 2026-04-21 03:41 | 1.39417 | -77.35789 | 8842 ft | 174 kts | 207° |
| 2026-04-21 03:41 | 1.38323 | -77.36328 | 8771 ft | 173 kts | 201° |
| 2026-04-21 03:41 | 1.37164 | -77.36574 | 8526 ft | 170 kts | 180° |
| 2026-04-21 03:41 | 1.35994 | -77.36385 | 8298 ft | 168 kts | 158° |
| 2026-04-21 03:42 | 1.34995 | -77.35819 | 8064 ft | 165 kts | 138° |
| 2026-04-21 03:42 | 1.34248 | -77.34950 | 7840 ft | 163 kts | 117° |
| 2026-04-21 03:42 | 1.33845 | -77.33906 | 7621 ft | 162 kts | 99° |
| 2026-04-21 03:42 | 1.33809 | -77.32784 | 7391 ft | 160 kts | 80° |
| 2026-04-21 03:43 | 1.34141 | -77.31724 | 7176 ft | 160 kts | 62° |
| 2026-04-21 03:43 | 1.34786 | -77.30840 | 6954 ft | 159 kts | 43° |
| 2026-04-21 03:43 | 1.35700 | -77.30203 | 6721 ft | 159 kts | 24° |
| 2026-04-21 03:43 | 1.36755 | -77.29846 | 6490 ft | 159 kts | 15° |
| 2026-04-21 03:44 | 1.37825 | -77.29574 | 6217 ft | 160 kts | 14° |
| 2026-04-21 03:44 | 1.38898 | -77.29299 | 5974 ft | 155 kts | 15° |
| 2026-04-21 03:44 | 1.39813 | -77.29060 | 5908 ft | 97 kts | 17° |
| 2026-04-21 03:44 | 1.40247 | -77.28943 | 5876 ft | 41 kts | 13° |
| 2026-04-21 03:45 | 1.40460 | -77.28886 | 5860 ft | 22 kts | 11° |
| 2026-04-21 03:45 | 1.40583 | -77.28866 | 5851 ft | 11 kts | 6° |
| 2026-04-21 03:45 | 1.40608 | -77.28846 | 5850 ft | 6 kts | 159° |
| 2026-04-21 03:45 | 1.40533 | -77.28861 | 5854 ft | 14 kts | 197° |
| 2026-04-21 03:46 | 1.40453 | -77.28885 | 5861 ft | 9 kts | 197° |
| 2026-04-21 03:46 | 1.40406 | -77.28899 | 5864 ft | 5 kts | 196° |
| 2026-04-21 03:46 | 1.40348 | -77.28915 | 5868 ft | 15 kts | 194° |
| 2026-04-21 03:46 | 1.40227 | -77.28946 | 5878 ft | 18 kts | 196° |
| 2026-04-21 03:47 | 1.40113 | -77.28977 | 5886 ft | 17 kts | 194° |
| 2026-04-21 03:47 | 1.39981 | -77.29012 | 5896 ft | 22 kts | 194° |
| 2026-04-21 03:47 | 1.39845 | -77.29046 | 5905 ft | 17 kts | 194° |
| 2026-04-21 03:47 | 1.39743 | -77.29073 | 5913 ft | 12 kts | 195° |
| 2026-04-21 03:48 | 1.39679 | -77.29069 | 5916 ft | 8 kts | 126° |
| 2026-04-21 03:48 | 1.39657 | -77.29019 | 5917 ft | 5 kts | 143° |
| 2026-04-21 03:48 | 1.39631 | -77.29017 | 5919 ft | 1 kts | 179° |
| 2026-04-21 03:48 | 1.39624 | -77.29015 | 5919 ft | 1 kts | 158° |
| 2026-04-21 03:49 | 1.39613 | -77.29003 | 5919 ft | 3 kts | 121° |
| 2026-04-21 03:49 | 1.39609 | -77.28982 | 5915 ft | 1 kts | 103° |
| 2026-04-21 03:49 | 1.39608 | -77.28977 | 5914 ft | 0 kts | 103° |